createdAt,value
2022-08-28T00:00:53.679Z,0.00
2022-08-28T00:01:53.712Z,0.00
2022-08-28T00:02:53.870Z,0.00
2022-08-28T00:03:53.649Z,0.00
2022-08-28T00:04:53.708Z,0.00
2022-08-28T00:05:53.633Z,0.00
2022-08-28T00:06:53.710Z,0.00
2022-08-28T00:07:53.633Z,0.00
2022-08-28T00:08:53.595Z,0.00
2022-08-28T00:09:53.587Z,0.00
2022-08-28T00:10:53.587Z,0.00
2022-08-28T00:11:53.568Z,0.00
2022-08-28T00:12:53.632Z,0.00
2022-08-28T00:13:53.535Z,0.00
2022-08-28T00:14:53.522Z,0.00
2022-08-28T00:15:53.612Z,0.00
2022-08-28T00:16:53.510Z,0.00
2022-08-28T00:17:53.508Z,0.00
2022-08-28T00:18:53.508Z,0.00
2022-08-28T00:19:53.480Z,0.00
2022-08-28T00:20:53.460Z,0.00
2022-08-28T00:21:53.449Z,0.00
2022-08-28T00:22:53.436Z,0.00
2022-08-28T00:23:53.437Z,0.00
2022-08-28T00:24:55.442Z,0.00
2022-08-28T00:25:53.443Z,0.00
2022-08-28T00:26:53.450Z,0.00
2022-08-28T00:27:53.415Z,0.00
2022-08-28T00:28:53.409Z,0.00
2022-08-28T00:29:53.379Z,0.00
2022-08-28T00:30:53.402Z,0.00
2022-08-28T00:31:53.351Z,0.00
2022-08-28T00:32:53.341Z,0.00
2022-08-28T00:33:53.336Z,0.00
2022-08-28T00:34:53.319Z,0.00
2022-08-28T00:35:53.345Z,0.00
2022-08-28T00:36:53.288Z,0.00
2022-08-28T00:37:53.292Z,0.00
2022-08-28T00:38:53.269Z,0.00
2022-08-28T00:39:53.364Z,0.00
2022-08-28T00:40:53.275Z,0.00
2022-08-28T00:41:56.682Z,0.00
2022-08-28T00:42:53.232Z,0.00
2022-08-28T00:43:53.229Z,0.00
2022-08-28T00:44:53.204Z,0.00
2022-08-28T00:45:53.230Z,0.00
2022-08-28T00:46:53.245Z,0.00
2022-08-28T00:47:53.188Z,0.00
2022-08-28T00:48:53.163Z,0.00
2022-08-28T00:49:53.155Z,0.00
2022-08-28T00:50:53.169Z,0.00
2022-08-28T00:51:53.139Z,0.00
2022-08-28T00:52:53.125Z,0.00
2022-08-28T00:53:55.612Z,0.00
2022-08-28T00:54:58.757Z,0.00
2022-08-28T00:55:54.105Z,0.00
2022-08-28T00:56:53.079Z,0.00
2022-08-28T00:57:53.074Z,0.00
2022-08-28T00:58:53.095Z,0.00
2022-08-28T00:59:53.042Z,0.00
2022-08-28T01:00:53.029Z,0.00
2022-08-28T01:01:53.107Z,0.00
2022-08-28T01:02:53.038Z,0.00
2022-08-28T01:03:53.002Z,0.00
2022-08-28T01:04:53.029Z,0.00
2022-08-28T01:05:53.002Z,0.00
2022-08-28T01:06:52.961Z,0.00
2022-08-28T01:07:52.971Z,0.00
2022-08-28T01:08:52.945Z,0.00
2022-08-28T01:09:52.960Z,0.00
2022-08-28T01:10:52.927Z,0.00
2022-08-28T01:11:52.926Z,0.00
2022-08-28T01:12:52.913Z,0.00
2022-08-28T01:13:52.886Z,0.00
2022-08-28T01:14:52.899Z,0.00
2022-08-28T01:15:52.921Z,0.00
2022-08-28T01:16:52.858Z,0.00
2022-08-28T01:17:52.837Z,0.00
2022-08-28T01:18:52.841Z,0.00
2022-08-28T01:19:52.818Z,0.00
2022-08-28T01:20:52.824Z,0.00
2022-08-28T01:21:52.808Z,0.00
2022-08-28T01:22:52.800Z,0.00
2022-08-28T01:23:52.784Z,0.00
2022-08-28T01:24:52.759Z,0.00
2022-08-28T01:25:52.761Z,0.00
2022-08-28T01:26:52.747Z,0.00
2022-08-28T01:27:52.734Z,0.00
2022-08-28T01:28:52.737Z,0.00
2022-08-28T01:29:52.728Z,0.00
2022-08-28T01:30:52.728Z,0.00
2022-08-28T01:31:52.691Z,0.00
2022-08-28T01:32:52.694Z,0.00
2022-08-28T01:33:52.705Z,0.00
2022-08-28T01:34:52.698Z,0.00
2022-08-28T01:35:52.665Z,0.00
2022-08-28T01:36:52.636Z,0.00
2022-08-28T01:37:52.631Z,0.00
2022-08-28T01:38:52.677Z,0.00
2022-08-28T01:39:52.622Z,0.00
2022-08-28T01:40:52.607Z,0.00
2022-08-28T01:41:52.591Z,0.00
2022-08-28T01:42:52.581Z,0.00
2022-08-28T01:43:52.560Z,0.00
2022-08-28T01:44:52.558Z,0.00
2022-08-28T01:45:52.550Z,0.00
2022-08-28T01:46:52.535Z,0.00
2022-08-28T01:47:52.519Z,0.00
2022-08-28T01:48:52.498Z,0.00
2022-08-28T01:49:52.503Z,0.00
2022-08-28T01:50:52.477Z,0.00
2022-08-28T01:51:52.480Z,0.00
2022-08-28T01:52:52.467Z,0.00
2022-08-28T01:53:52.460Z,0.00
2022-08-28T01:54:52.453Z,0.00
2022-08-28T01:55:52.428Z,0.00
2022-08-28T01:56:52.409Z,0.00
2022-08-28T01:57:52.414Z,0.00
2022-08-28T01:58:52.475Z,0.00
2022-08-28T01:59:52.414Z,0.00
2022-08-28T02:00:52.382Z,0.00
2022-08-28T02:01:52.446Z,0.00
2022-08-28T02:02:52.348Z,0.00
2022-08-28T02:03:52.360Z,0.00
2022-08-28T02:04:52.389Z,0.00
2022-08-28T02:05:52.325Z,0.00
2022-08-28T02:06:52.323Z,0.00
2022-08-28T02:07:52.342Z,0.00
2022-08-28T02:08:52.288Z,0.00
2022-08-28T02:09:52.306Z,0.00
2022-08-28T02:10:52.273Z,0.00
2022-08-28T02:11:52.262Z,0.00
2022-08-28T02:12:52.298Z,0.00
2022-08-28T02:13:52.272Z,0.00
2022-08-28T02:14:52.215Z,0.00
2022-08-28T02:15:52.290Z,0.00
2022-08-28T02:16:52.223Z,0.00
2022-08-28T02:17:52.227Z,0.00
2022-08-28T02:18:52.180Z,0.00
2022-08-28T02:19:52.168Z,0.00
2022-08-28T02:20:52.156Z,0.00
2022-08-28T02:21:52.138Z,0.00
2022-08-28T02:22:52.167Z,0.00
2022-08-28T02:23:52.129Z,0.00
2022-08-28T02:24:52.119Z,0.00
2022-08-28T02:25:52.106Z,0.00
2022-08-28T02:26:52.118Z,0.00
2022-08-28T02:27:52.087Z,0.00
2022-08-28T02:28:52.082Z,0.00
2022-08-28T02:29:52.057Z,0.00
2022-08-28T02:30:52.102Z,0.00
2022-08-28T02:31:52.052Z,0.00
2022-08-28T02:32:52.027Z,0.00
2022-08-28T02:33:52.014Z,0.00
2022-08-28T02:34:52.030Z,0.00
2022-08-28T02:35:51.986Z,0.00
2022-08-28T02:36:51.987Z,0.00
2022-08-28T02:37:51.984Z,0.00
2022-08-28T02:38:57.364Z,0.00
2022-08-28T02:39:52.966Z,0.00
2022-08-28T02:40:51.939Z,0.00
2022-08-28T02:41:51.931Z,0.00
2022-08-28T02:42:51.924Z,0.00
2022-08-28T02:43:51.920Z,0.00
2022-08-28T02:44:51.895Z,0.00
2022-08-28T02:45:51.926Z,0.00
2022-08-28T02:46:51.868Z,0.00
2022-08-28T02:47:51.887Z,0.00
2022-08-28T02:48:51.863Z,0.00
2022-08-28T02:49:51.867Z,0.00
2022-08-28T02:50:51.850Z,0.00
2022-08-28T02:51:51.938Z,0.00
2022-08-28T02:52:51.815Z,0.00
2022-08-28T02:53:51.857Z,0.00
2022-08-28T02:54:51.800Z,0.00
2022-08-28T02:55:51.792Z,0.00
2022-08-28T02:56:51.787Z,0.00
2022-08-28T02:57:51.767Z,0.00
2022-08-28T02:58:51.758Z,0.00
2022-08-28T02:59:51.743Z,0.00
2022-08-28T03:00:51.726Z,0.00
2022-08-28T03:01:51.748Z,0.00
2022-08-28T03:02:51.812Z,0.00
2022-08-28T03:03:51.685Z,0.00
2022-08-28T03:04:51.694Z,0.00
2022-08-28T03:05:51.665Z,0.00
2022-08-28T03:06:51.653Z,0.00
2022-08-28T03:07:51.640Z,0.00
2022-08-28T03:08:51.642Z,0.00
2022-08-28T03:09:51.644Z,0.00
2022-08-28T03:10:51.618Z,0.00
2022-08-28T03:11:51.595Z,0.00
2022-08-28T03:12:51.592Z,0.00
2022-08-28T03:13:51.579Z,0.00
2022-08-28T03:14:51.588Z,0.00
2022-08-28T03:15:52.012Z,0.00
2022-08-28T03:16:51.611Z,0.00
2022-08-28T03:17:51.561Z,0.00
2022-08-28T03:18:51.527Z,0.00
2022-08-28T03:19:51.513Z,0.00
2022-08-28T03:20:51.500Z,0.00
2022-08-28T03:21:52.336Z,0.00
2022-08-28T03:22:51.483Z,0.00
2022-08-28T03:23:51.481Z,0.00
2022-08-28T03:24:51.464Z,0.00
2022-08-28T03:25:51.457Z,0.00
2022-08-28T03:26:51.549Z,0.00
2022-08-28T03:27:51.424Z,0.00
2022-08-28T03:28:51.410Z,0.00
2022-08-28T03:29:51.413Z,0.00
2022-08-28T03:30:51.457Z,0.00
2022-08-28T03:31:51.387Z,0.00
2022-08-28T03:32:51.390Z,0.00
2022-08-28T03:33:51.405Z,0.00
2022-08-28T03:34:51.347Z,0.00
2022-08-28T03:35:51.338Z,0.00
2022-08-28T03:36:51.342Z,0.00
2022-08-28T03:37:51.354Z,0.00
2022-08-28T03:38:51.318Z,0.00
2022-08-28T03:39:51.314Z,0.00
2022-08-28T03:40:51.287Z,0.00
2022-08-28T03:41:51.492Z,0.00
2022-08-28T03:42:53.434Z,0.00
2022-08-28T03:43:51.365Z,0.00
2022-08-28T03:44:51.241Z,0.00
2022-08-28T03:45:51.267Z,0.00
2022-08-28T03:46:51.215Z,0.00
2022-08-28T03:47:51.214Z,0.00
2022-08-28T03:48:51.212Z,0.00
2022-08-28T03:49:51.224Z,0.00
2022-08-28T03:50:51.225Z,0.00
2022-08-28T03:51:51.190Z,0.00
2022-08-28T03:52:51.169Z,0.00
2022-08-28T03:53:51.146Z,0.00
2022-08-28T03:54:51.139Z,0.00
2022-08-28T03:55:51.167Z,0.00
2022-08-28T03:56:51.114Z,0.00
2022-08-28T03:57:51.109Z,0.00
2022-08-28T03:58:51.091Z,0.00
2022-08-28T03:59:51.103Z,0.00
2022-08-28T04:00:51.068Z,0.00
2022-08-28T04:01:51.088Z,0.00
2022-08-28T04:02:51.073Z,0.00
2022-08-28T04:03:51.031Z,0.00
2022-08-28T04:04:51.020Z,0.00
2022-08-28T04:05:51.018Z,0.00
2022-08-28T04:06:51.001Z,0.00
2022-08-28T04:07:50.994Z,0.00
2022-08-28T04:08:51.073Z,0.00
2022-08-28T04:09:50.973Z,0.00
2022-08-28T04:10:50.994Z,0.00
2022-08-28T04:11:51.028Z,0.00
2022-08-28T04:12:50.969Z,0.00
2022-08-28T04:13:50.932Z,0.00
2022-08-28T04:14:50.925Z,0.00
2022-08-28T04:15:50.903Z,0.00
2022-08-28T04:16:50.996Z,0.00
2022-08-28T04:17:50.899Z,0.00
2022-08-28T04:18:50.920Z,0.00
2022-08-28T04:19:50.868Z,0.00
2022-08-28T04:20:50.868Z,0.00
2022-08-28T04:21:50.840Z,0.00
2022-08-28T04:22:55.112Z,0.00
2022-08-28T04:23:50.858Z,0.00
2022-08-28T04:24:50.804Z,0.00
2022-08-28T04:25:50.807Z,0.00
2022-08-28T04:26:50.798Z,0.00
2022-08-28T04:27:50.771Z,0.00
2022-08-28T04:28:50.972Z,0.00
2022-08-28T04:29:50.782Z,0.00
2022-08-28T04:30:50.763Z,0.00
2022-08-28T04:31:50.826Z,0.00
2022-08-28T04:32:50.726Z,0.00
2022-08-28T04:33:50.731Z,0.00
2022-08-28T04:34:50.836Z,5.62
2022-08-28T04:35:50.690Z,5.62
2022-08-28T04:36:50.680Z,5.62
2022-08-28T04:37:50.724Z,5.62
2022-08-28T04:38:50.663Z,5.62
2022-08-28T04:39:50.679Z,5.62
2022-08-28T04:40:50.633Z,11.25
2022-08-28T04:41:50.628Z,11.25
2022-08-28T04:42:50.635Z,11.25
2022-08-28T04:43:50.601Z,16.88
2022-08-28T04:44:50.598Z,16.88
2022-08-28T04:45:50.622Z,16.88
2022-08-28T04:46:50.563Z,16.88
2022-08-28T04:47:50.566Z,16.88
2022-08-28T04:48:50.571Z,22.50
2022-08-28T04:49:50.550Z,22.50
2022-08-28T04:50:50.531Z,22.50
2022-08-28T04:51:50.511Z,22.50
2022-08-28T04:52:50.520Z,22.50
2022-08-28T04:53:50.489Z,28.12
2022-08-28T04:54:50.589Z,28.12
2022-08-28T04:55:55.021Z,28.12
2022-08-28T04:56:50.454Z,33.75
2022-08-28T04:57:50.449Z,33.75
2022-08-28T04:58:50.444Z,33.75
2022-08-28T04:59:50.469Z,39.38
2022-08-28T05:00:50.507Z,39.38
2022-08-28T05:01:50.452Z,39.38
2022-08-28T05:02:50.391Z,45.00
2022-08-28T05:03:50.377Z,45.00
2022-08-28T05:04:50.376Z,50.62
2022-08-28T05:05:50.446Z,50.62
2022-08-28T05:06:50.367Z,56.25
2022-08-28T05:07:50.338Z,61.88
2022-08-28T05:08:50.325Z,61.88
2022-08-28T05:09:50.316Z,67.50
2022-08-28T05:10:50.308Z,67.50
2022-08-28T05:11:50.306Z,73.12
2022-08-28T05:12:50.287Z,73.12
2022-08-28T05:13:50.297Z,73.12
2022-08-28T05:14:50.281Z,78.75
2022-08-28T05:15:50.273Z,78.75
2022-08-28T05:16:50.244Z,84.38
2022-08-28T05:17:50.243Z,84.38
2022-08-28T05:18:50.274Z,90.00
2022-08-28T05:19:50.213Z,90.00
2022-08-28T05:20:50.210Z,95.62
2022-08-28T05:21:50.208Z,95.62
2022-08-28T05:22:50.192Z,101.25
2022-08-28T05:23:50.194Z,101.25
2022-08-28T05:24:50.185Z,101.25
2022-08-28T05:25:50.140Z,101.25
2022-08-28T05:26:50.149Z,101.25
2022-08-28T05:27:50.155Z,106.88
2022-08-28T05:28:50.238Z,106.88
2022-08-28T05:29:50.120Z,112.50
2022-08-28T05:30:50.106Z,118.12
2022-08-28T05:31:50.112Z,118.12
2022-08-28T05:32:50.068Z,174.38
2022-08-28T05:33:50.063Z,286.88
2022-08-28T05:34:50.062Z,331.88
2022-08-28T05:35:50.041Z,343.12
2022-08-28T05:36:50.042Z,354.38
2022-08-28T05:37:50.038Z,354.38
2022-08-28T05:38:50.015Z,371.25
2022-08-28T05:39:50.035Z,388.12
2022-08-28T05:40:50.005Z,416.25
2022-08-28T05:41:49.990Z,450.00
2022-08-28T05:42:49.983Z,506.25
2022-08-28T05:43:50.127Z,556.88
2022-08-28T05:44:49.941Z,562.50
2022-08-28T05:45:49.998Z,596.25
2022-08-28T05:46:49.930Z,596.25
2022-08-28T05:47:49.925Z,568.12
2022-08-28T05:48:49.899Z,573.75
2022-08-28T05:49:49.929Z,562.50
2022-08-28T05:50:49.903Z,540.00
2022-08-28T05:51:49.880Z,551.25
2022-08-28T05:52:49.882Z,568.12
2022-08-28T05:53:49.850Z,568.12
2022-08-28T05:54:49.835Z,585.00
2022-08-28T05:55:51.912Z,601.88
2022-08-28T05:56:49.846Z,624.38
2022-08-28T05:57:49.804Z,579.38
2022-08-28T05:58:49.820Z,534.38
2022-08-28T05:59:49.770Z,523.12
2022-08-28T06:00:49.774Z,528.75
2022-08-28T06:01:49.833Z,545.62
2022-08-28T06:02:49.760Z,573.75
2022-08-28T06:03:49.767Z,585.00
2022-08-28T06:04:49.732Z,596.25
2022-08-28T06:05:49.845Z,618.75
2022-08-28T06:06:49.716Z,663.75
2022-08-28T06:07:49.715Z,708.75
2022-08-28T06:08:58.343Z,686.25
2022-08-28T06:09:50.689Z,708.75
2022-08-28T06:10:50.893Z,759.38
2022-08-28T06:11:49.691Z,742.50
2022-08-28T06:12:49.640Z,680.62
2022-08-28T06:13:49.623Z,703.12
2022-08-28T06:14:49.628Z,725.62
2022-08-28T06:15:49.650Z,720.00
2022-08-28T06:16:49.603Z,781.88
2022-08-28T06:17:49.577Z,781.88
2022-08-28T06:18:49.568Z,798.75
2022-08-28T06:19:49.635Z,860.62
2022-08-28T06:20:49.656Z,838.12
2022-08-28T06:21:49.554Z,787.50
2022-08-28T06:22:49.521Z,849.38
2022-08-28T06:23:49.547Z,888.75
2022-08-28T06:24:49.505Z,810.00
2022-08-28T06:25:49.496Z,787.50
2022-08-28T06:26:49.501Z,821.25
2022-08-28T06:27:49.480Z,911.25
2022-08-28T06:28:49.470Z,877.50
2022-08-28T06:29:49.456Z,888.75
2022-08-28T06:31:18.358Z,911.25
2022-08-28T06:31:50.503Z,967.50
2022-08-28T06:32:49.418Z,1012.50
2022-08-28T06:33:49.415Z,1035.00
2022-08-28T06:34:49.398Z,1023.75
2022-08-28T06:35:49.405Z,1046.25
2022-08-28T06:36:53.653Z,1035.00
2022-08-28T06:37:49.365Z,1029.38
2022-08-28T06:38:49.357Z,1051.88
2022-08-28T06:39:49.351Z,1040.62
2022-08-28T06:40:49.340Z,1175.62
2022-08-28T06:41:49.347Z,1113.75
2022-08-28T06:42:49.310Z,1108.12
2022-08-28T06:43:49.304Z,1158.75
2022-08-28T06:44:49.326Z,1175.62
2022-08-28T06:45:49.309Z,1108.12
2022-08-28T06:46:49.293Z,1068.75
2022-08-28T06:47:49.265Z,1063.12
2022-08-28T06:48:49.283Z,1068.75
2022-08-28T06:49:49.229Z,1153.12
2022-08-28T06:50:49.233Z,1125.00
2022-08-28T06:51:49.222Z,1164.38
2022-08-28T06:52:49.210Z,1186.88
2022-08-28T06:53:49.191Z,1203.75
2022-08-28T06:54:55.458Z,1243.12
2022-08-28T06:55:50.201Z,1276.88
2022-08-28T06:56:49.178Z,1181.25
2022-08-28T06:57:49.156Z,1260.00
2022-08-28T06:58:50.035Z,1327.50
2022-08-28T06:59:49.154Z,1265.62
2022-08-28T07:00:54.785Z,1215.00
2022-08-28T07:01:50.264Z,1260.00
2022-08-28T07:02:49.185Z,1316.25
2022-08-28T07:03:49.080Z,1293.75
2022-08-28T07:04:49.072Z,1344.38
2022-08-28T07:05:49.066Z,1372.50
2022-08-28T07:06:53.055Z,1462.50
2022-08-28T07:07:50.044Z,1305.00
2022-08-28T07:08:49.114Z,1220.62
2022-08-28T07:09:49.006Z,1372.50
2022-08-28T07:10:49.006Z,1563.75
2022-08-28T07:11:49.015Z,1530.00
2022-08-28T07:12:49.062Z,1462.50
2022-08-28T07:13:48.979Z,1417.50
2022-08-28T07:14:48.963Z,1383.75
2022-08-28T07:15:49.013Z,1333.12
2022-08-28T07:16:48.951Z,1215.00
2022-08-28T07:17:48.972Z,1243.12
2022-08-28T07:18:48.930Z,1468.12
2022-08-28T07:19:48.898Z,1501.88
2022-08-28T07:20:48.934Z,1383.75
2022-08-28T07:21:48.879Z,1428.75
2022-08-28T07:22:48.880Z,1535.62
2022-08-28T07:23:49.884Z,1580.62
2022-08-28T07:24:48.842Z,1597.50
2022-08-28T07:25:48.842Z,1535.62
2022-08-28T07:26:48.849Z,1524.38
2022-08-28T07:27:48.810Z,1462.50
2022-08-28T07:28:48.811Z,1445.62
2022-08-28T07:29:48.814Z,1687.50
2022-08-28T07:30:48.859Z,1636.88
2022-08-28T07:31:49.033Z,1524.38
2022-08-28T07:32:48.760Z,1760.62
2022-08-28T07:33:50.789Z,1721.25
2022-08-28T07:34:49.780Z,1558.12
2022-08-28T07:35:48.730Z,1586.25
2022-08-28T07:36:48.751Z,1597.50
2022-08-28T07:37:48.722Z,1726.88
2022-08-28T07:38:48.713Z,1665.00
2022-08-28T07:39:48.689Z,1800.00
2022-08-28T07:40:48.755Z,1771.88
2022-08-28T07:41:48.675Z,1620.00
2022-08-28T07:42:48.653Z,1597.50
2022-08-28T07:43:48.690Z,1591.88
2022-08-28T07:44:48.640Z,1726.88
2022-08-28T07:45:48.742Z,1732.50
2022-08-28T07:46:48.687Z,1665.00
2022-08-28T07:47:48.612Z,1895.62
2022-08-28T07:48:48.739Z,1771.88
2022-08-28T07:49:48.627Z,1704.38
2022-08-28T07:50:48.614Z,1861.88
2022-08-28T07:51:48.599Z,1845.00
2022-08-28T07:52:48.540Z,1771.88
2022-08-28T07:53:49.086Z,1783.12
2022-08-28T07:54:48.549Z,1642.50
2022-08-28T07:55:48.552Z,1648.12
2022-08-28T07:56:48.512Z,1620.00
2022-08-28T07:57:48.497Z,1591.88
2022-08-28T07:58:48.477Z,1788.75
2022-08-28T07:59:48.470Z,1845.00
2022-08-28T08:00:48.519Z,1963.12
2022-08-28T08:01:48.571Z,1946.25
2022-08-28T08:02:48.506Z,1867.50
2022-08-28T08:03:48.474Z,1873.12
2022-08-28T08:04:48.409Z,1980.00
2022-08-28T08:05:48.419Z,2047.50
2022-08-28T08:06:48.465Z,2030.62
2022-08-28T08:07:48.394Z,2019.38
2022-08-28T08:08:48.485Z,1755.00
2022-08-28T08:09:48.375Z,1687.50
2022-08-28T08:10:48.388Z,1878.75
2022-08-28T08:11:49.104Z,1845.00
2022-08-28T08:12:48.333Z,2008.12
2022-08-28T08:13:48.378Z,2165.62
2022-08-28T08:14:48.338Z,1918.12
2022-08-28T08:15:48.357Z,1951.88
2022-08-28T08:16:48.282Z,2047.50
2022-08-28T08:17:48.304Z,2013.75
2022-08-28T08:18:48.278Z,2306.25
2022-08-28T08:19:48.512Z,2244.38
2022-08-28T08:20:48.253Z,2041.88
2022-08-28T08:21:48.318Z,1935.00
2022-08-28T08:22:49.261Z,1895.62
2022-08-28T08:23:48.205Z,1946.25
2022-08-28T08:24:48.211Z,1968.75
2022-08-28T08:25:48.206Z,1895.62
2022-08-28T08:26:59.445Z,2081.25
2022-08-28T08:27:49.289Z,2120.62
2022-08-28T08:28:48.155Z,2221.88
2022-08-28T08:29:48.162Z,2396.25
2022-08-28T08:30:48.175Z,2103.75
2022-08-28T08:31:48.123Z,2188.12
2022-08-28T08:32:48.107Z,2205.00
2022-08-28T08:33:48.117Z,1816.88
2022-08-28T08:34:48.147Z,1873.12
2022-08-28T08:35:48.080Z,2154.38
2022-08-28T08:36:48.098Z,2098.12
2022-08-28T08:37:48.076Z,1980.00
2022-08-28T08:38:48.107Z,1991.25
2022-08-28T08:39:48.110Z,2058.75
2022-08-28T08:40:48.127Z,2165.62
2022-08-28T08:41:48.028Z,2098.12
2022-08-28T08:42:48.099Z,2002.50
2022-08-28T08:43:48.012Z,2250.00
2022-08-28T08:44:47.993Z,2334.38
2022-08-28T08:45:48.002Z,2227.50
2022-08-28T08:46:48.003Z,2244.38
2022-08-28T08:47:47.962Z,2441.25
2022-08-28T08:48:48.012Z,2356.88
2022-08-28T08:49:47.961Z,2295.00
2022-08-28T08:50:47.990Z,2401.88
2022-08-28T08:51:47.918Z,2131.88
2022-08-28T08:52:47.924Z,2086.88
2022-08-28T08:53:47.924Z,2255.62
2022-08-28T08:54:47.915Z,2491.88
2022-08-28T08:55:47.907Z,2396.25
2022-08-28T08:56:47.897Z,2334.38
2022-08-28T08:57:49.376Z,2413.12
2022-08-28T08:58:47.861Z,2351.25
2022-08-28T08:59:47.941Z,2441.25
2022-08-28T09:00:47.810Z,2362.50
2022-08-28T09:01:47.881Z,2311.88
2022-08-28T09:02:47.809Z,2385.00
2022-08-28T09:03:47.897Z,2345.62
2022-08-28T09:04:47.894Z,2250.00
2022-08-28T09:05:47.761Z,2171.25
2022-08-28T09:06:47.873Z,2373.75
2022-08-28T09:07:52.665Z,2632.50
2022-08-28T09:08:48.802Z,2480.62
2022-08-28T09:09:47.726Z,2475.00
2022-08-28T09:10:47.798Z,2508.75
2022-08-28T09:11:51.085Z,2548.12
2022-08-28T09:12:48.730Z,2553.75
2022-08-28T09:13:47.750Z,2536.88
2022-08-28T09:14:48.665Z,2396.25
2022-08-28T09:15:50.796Z,2126.25
2022-08-28T09:16:47.645Z,2216.25
2022-08-28T09:17:47.639Z,2576.25
2022-08-28T09:18:47.621Z,2700.00
2022-08-28T09:19:47.614Z,2559.38
2022-08-28T09:20:47.615Z,2396.25
2022-08-28T09:21:47.615Z,2266.88
2022-08-28T09:22:47.567Z,2385.00
2022-08-28T09:23:47.717Z,2446.88
2022-08-28T09:24:47.597Z,2475.00
2022-08-28T09:25:47.548Z,2491.88
2022-08-28T09:26:47.531Z,2497.50
2022-08-28T09:27:47.616Z,2756.25
2022-08-28T09:28:47.512Z,2947.50
2022-08-28T09:29:47.500Z,2806.88
2022-08-28T09:30:47.529Z,2655.00
2022-08-28T09:31:47.479Z,2643.75
2022-08-28T09:32:47.482Z,2525.62
2022-08-28T09:33:47.453Z,2463.75
2022-08-28T09:34:47.438Z,2452.50
2022-08-28T09:35:47.433Z,2475.00
2022-08-28T09:36:47.453Z,2649.38
2022-08-28T09:37:47.420Z,2874.38
2022-08-28T09:38:47.409Z,2705.62
2022-08-28T09:39:48.959Z,2604.38
2022-08-28T09:40:47.402Z,2835.00
2022-08-28T09:41:47.398Z,2666.25
2022-08-28T09:42:47.378Z,2351.25
2022-08-28T09:43:47.349Z,2103.75
2022-08-28T09:44:47.407Z,2368.12
2022-08-28T09:45:47.316Z,2480.62
2022-08-28T09:46:47.407Z,2671.88
2022-08-28T09:47:47.391Z,2626.88
2022-08-28T09:48:47.419Z,2508.75
2022-08-28T09:49:47.276Z,2548.12
2022-08-28T09:50:47.286Z,2244.38
2022-08-28T09:51:47.268Z,2671.88
2022-08-28T09:52:47.261Z,2514.38
2022-08-28T09:53:47.255Z,2458.12
2022-08-28T09:54:47.269Z,2671.88
2022-08-28T09:55:47.210Z,2761.88
2022-08-28T09:56:47.206Z,2570.62
2022-08-28T09:57:47.255Z,2632.50
2022-08-28T09:58:47.226Z,2694.38
2022-08-28T09:59:47.224Z,2902.50
2022-08-28T10:00:47.167Z,2970.00
2022-08-28T10:01:47.262Z,2677.50
2022-08-28T10:02:47.142Z,2908.12
2022-08-28T10:03:47.128Z,3043.12
2022-08-28T10:04:47.377Z,2677.50
2022-08-28T10:05:47.136Z,2576.25
2022-08-28T10:06:47.091Z,2480.62
2022-08-28T10:07:47.082Z,2593.12
2022-08-28T10:08:47.097Z,2677.50
2022-08-28T10:09:47.845Z,2840.62
2022-08-28T10:10:47.167Z,2790.00
2022-08-28T10:11:47.035Z,2244.38
2022-08-28T10:12:47.106Z,2694.38
2022-08-28T10:13:47.015Z,2643.75
2022-08-28T10:14:47.005Z,2711.25
2022-08-28T10:15:47.052Z,1906.88
2022-08-28T10:16:47.007Z,1980.00
2022-08-28T10:17:47.001Z,2857.50
2022-08-28T10:18:46.970Z,2818.12
2022-08-28T10:19:46.945Z,2885.62
2022-08-28T10:20:46.974Z,3043.12
2022-08-28T10:21:46.956Z,2851.88
2022-08-28T10:22:47.999Z,2587.50
2022-08-28T10:23:47.009Z,2306.25
2022-08-28T10:24:47.062Z,2638.12
2022-08-28T10:25:46.991Z,2587.50
2022-08-28T10:26:46.985Z,2705.62
2022-08-28T10:27:46.978Z,2790.00
2022-08-28T10:28:46.950Z,2801.25
2022-08-28T10:29:47.009Z,2868.75
2022-08-28T10:30:48.007Z,2851.88
2022-08-28T10:31:46.878Z,2812.50
2022-08-28T10:32:46.997Z,2835.00
2022-08-28T10:33:46.839Z,2947.50
2022-08-28T10:34:46.832Z,2818.12
2022-08-28T10:35:46.883Z,2767.50
2022-08-28T10:36:46.895Z,2778.75
2022-08-28T10:37:46.794Z,2649.38
2022-08-28T10:38:51.194Z,2413.12
2022-08-28T10:39:47.833Z,2520.00
2022-08-28T10:40:46.784Z,2632.50
2022-08-28T10:41:46.783Z,2570.62
2022-08-28T10:42:46.929Z,2604.38
2022-08-28T10:43:48.054Z,2694.38
2022-08-28T10:44:46.826Z,2823.75
2022-08-28T10:45:46.803Z,2632.50
2022-08-28T10:46:46.772Z,2480.62
2022-08-28T10:47:46.770Z,2722.50
2022-08-28T10:48:46.792Z,2913.75
2022-08-28T10:49:46.667Z,2801.25
2022-08-28T10:50:46.623Z,2593.12
2022-08-28T10:51:46.657Z,2621.25
2022-08-28T10:52:46.601Z,2615.62
2022-08-28T10:53:46.589Z,2632.50
2022-08-28T10:54:46.577Z,2632.50
2022-08-28T10:55:46.578Z,2818.12
2022-08-28T10:56:46.560Z,2790.00
2022-08-28T10:57:47.559Z,2739.38
2022-08-28T10:58:46.539Z,2975.62
2022-08-28T10:59:46.528Z,2857.50
2022-08-28T11:00:46.679Z,2503.12
2022-08-28T11:01:46.630Z,2469.38
2022-08-28T11:02:46.686Z,2520.00
2022-08-28T11:03:46.572Z,2491.88
2022-08-28T11:04:46.470Z,2565.00
2022-08-28T11:05:53.450Z,2548.12
2022-08-28T11:06:47.506Z,2542.50
2022-08-28T11:07:46.573Z,2610.00
2022-08-28T11:08:46.434Z,2548.12
2022-08-28T11:09:46.423Z,2548.12
2022-08-28T11:10:46.444Z,2643.75
2022-08-28T11:11:46.499Z,2593.12
2022-08-28T11:12:46.384Z,2491.88
2022-08-28T11:13:46.500Z,2390.62
2022-08-28T11:14:48.058Z,2491.88
2022-08-28T11:15:46.355Z,2626.88
2022-08-28T11:16:46.536Z,2615.62
2022-08-28T11:17:46.375Z,2559.38
2022-08-28T11:18:46.485Z,2632.50
2022-08-28T11:19:51.656Z,2705.62
2022-08-28T11:20:47.366Z,2683.12
2022-08-28T11:21:46.281Z,2677.50
2022-08-28T11:22:46.293Z,2643.75
2022-08-28T11:23:46.266Z,2818.12
2022-08-28T11:24:46.280Z,2728.12
2022-08-28T11:25:46.261Z,2593.12
2022-08-28T11:26:46.238Z,2857.50
2022-08-28T11:27:46.420Z,2790.00
2022-08-28T11:28:46.206Z,2638.12
2022-08-28T11:29:46.206Z,2638.12
2022-08-28T11:30:46.259Z,2705.62
2022-08-28T11:31:46.179Z,2688.75
2022-08-28T11:32:47.198Z,2548.12
2022-08-28T11:33:46.183Z,1929.38
2022-08-28T11:34:46.143Z,2311.88
2022-08-28T11:35:46.164Z,2514.38
2022-08-28T11:36:46.142Z,2638.12
2022-08-28T11:37:46.130Z,2992.50
2022-08-28T11:38:46.103Z,2885.62
2022-08-28T11:39:46.197Z,2565.00
2022-08-28T11:40:46.090Z,2716.88
2022-08-28T11:41:46.062Z,2857.50
2022-08-28T11:42:46.076Z,2745.00
2022-08-28T11:43:46.090Z,2677.50
2022-08-28T11:44:46.043Z,2503.12
2022-08-28T11:45:47.369Z,2553.75
2022-08-28T11:46:46.058Z,2604.38
2022-08-28T11:47:46.080Z,2407.50
2022-08-28T11:48:45.986Z,2424.38
2022-08-28T11:49:45.975Z,2542.50
2022-08-28T11:50:45.963Z,2615.62
2022-08-28T11:51:45.952Z,2491.88
2022-08-28T11:52:45.954Z,2430.00
2022-08-28T11:53:45.948Z,2345.62
2022-08-28T11:54:45.922Z,2221.88
2022-08-28T11:55:45.914Z,2216.25
2022-08-28T11:56:45.902Z,765.00
2022-08-28T11:57:45.894Z,2131.88
2022-08-28T11:58:45.880Z,2266.88
2022-08-28T11:59:45.931Z,2356.88
2022-08-28T12:00:46.014Z,2452.50
2022-08-28T12:01:45.847Z,2463.75
2022-08-28T12:02:45.873Z,2497.50
2022-08-28T12:03:45.857Z,2756.25
2022-08-28T12:04:45.871Z,2784.38
2022-08-28T12:05:45.842Z,2615.62
2022-08-28T12:06:45.808Z,2773.12
2022-08-28T12:07:45.816Z,2671.88
2022-08-28T12:08:45.791Z,2148.75
2022-08-28T12:09:45.819Z,2255.62
2022-08-28T12:10:45.766Z,2413.12
2022-08-28T12:11:45.746Z,2356.88
2022-08-28T12:12:46.136Z,2283.75
2022-08-28T12:13:45.730Z,2851.88
2022-08-28T12:14:45.702Z,3780.00
2022-08-28T12:15:45.720Z,2272.50
2022-08-28T12:16:45.702Z,3588.75
2022-08-28T12:17:45.702Z,1333.12
2022-08-28T12:18:45.666Z,1850.62
2022-08-28T12:19:52.091Z,770.62
2022-08-28T12:20:46.644Z,2205.00
2022-08-28T12:21:45.640Z,2424.38
2022-08-28T12:22:45.655Z,2418.75
2022-08-28T12:23:45.611Z,2199.38
2022-08-28T12:24:45.600Z,2188.12
2022-08-28T12:25:46.196Z,2148.75
2022-08-28T12:26:45.596Z,2188.12
2022-08-28T12:27:45.570Z,2148.75
2022-08-28T12:28:45.593Z,2272.50
2022-08-28T12:29:45.549Z,2334.38
2022-08-28T12:30:45.585Z,2283.75
2022-08-28T12:31:45.531Z,2396.25
2022-08-28T12:32:45.518Z,2345.62
2022-08-28T12:33:45.504Z,2542.50
2022-08-28T12:34:45.514Z,2446.88
2022-08-28T12:35:45.485Z,2058.75